sensor_id;sensor_type;location;lat;lon;timestamp;P1;durP1;ratioP1;P2;durP2;ratioP2
8952;SDS011;4511;50.890;8.054;2023-02-15T00:00:08;25.30;;;17.63;;
8952;SDS011;4511;50.890;8.054;2023-02-15T00:02:36;22.83;;;16.53;;
8952;SDS011;4511;50.890;8.054;2023-02-15T00:05:03;21.90;;;15.33;;
8952;SDS011;4511;50.890;8.054;2023-02-15T00:07:30;21.23;;;15.03;;
8952;SDS011;4511;50.890;8.054;2023-02-15T00:09:58;21.57;;;16.07;;
8952;SDS011;4511;50.890;8.054;2023-02-15T00:12:25;21.93;;;15.63;;
8952;SDS011;4511;50.890;8.054;2023-02-15T00:14:52;20.80;;;14.63;;
8952;SDS011;4511;50.890;8.054;2023-02-15T00:17:19;21.70;;;15.70;;
8952;SDS011;4511;50.890;8.054;2023-02-15T00:19:46;22.13;;;16.00;;
8952;SDS011;4511;50.890;8.054;2023-02-15T00:22:13;24.37;;;17.03;;
8952;SDS011;4511;50.890;8.054;2023-02-15T00:24:40;24.10;;;16.10;;
8952;SDS011;4511;50.890;8.054;2023-02-15T00:27:08;24.57;;;16.30;;
8952;SDS011;4511;50.890;8.054;2023-02-15T00:29:35;23.00;;;16.57;;
8952;SDS011;4511;50.890;8.054;2023-02-15T00:32:01;23.47;;;16.33;;
8952;SDS011;4511;50.890;8.054;2023-02-15T00:34:28;23.30;;;17.23;;
8952;SDS011;4511;50.890;8.054;2023-02-15T00:36:55;23.70;;;17.33;;
8952;SDS011;4511;50.890;8.054;2023-02-15T00:39:22;29.37;;;18.83;;
8952;SDS011;4511;50.890;8.054;2023-02-15T00:41:49;25.07;;;17.70;;
8952;SDS011;4511;50.890;8.054;2023-02-15T00:44:17;24.93;;;17.07;;
8952;SDS011;4511;50.890;8.054;2023-02-15T00:46:44;21.53;;;15.70;;
8952;SDS011;4511;50.890;8.054;2023-02-15T00:49:11;24.17;;;16.93;;
8952;SDS011;4511;50.890;8.054;2023-02-15T00:51:38;23.87;;;16.97;;
8952;SDS011;4511;50.890;8.054;2023-02-15T00:54:05;22.73;;;16.37;;
8952;SDS011;4511;50.890;8.054;2023-02-15T00:56:32;23.53;;;16.17;;
8952;SDS011;4511;50.890;8.054;2023-02-15T00:58:59;25.20;;;17.60;;
8952;SDS011;4511;50.890;8.054;2023-02-15T01:01:27;22.57;;;16.40;;
8952;SDS011;4511;50.890;8.054;2023-02-15T01:03:54;22.87;;;17.13;;
8952;SDS011;4511;50.890;8.054;2023-02-15T01:06:20;24.20;;;16.47;;
8952;SDS011;4511;50.890;8.054;2023-02-15T01:08:47;22.60;;;16.63;;
8952;SDS011;4511;50.890;8.054;2023-02-15T01:11:15;19.97;;;14.80;;
8952;SDS011;4511;50.890;8.054;2023-02-15T01:13:46;20.63;;;14.90;;
8952;SDS011;4511;50.890;8.054;2023-02-15T01:16:13;24.10;;;17.47;;
8952;SDS011;4511;50.890;8.054;2023-02-15T01:18:41;21.73;;;15.47;;
8952;SDS011;4511;50.890;8.054;2023-02-15T01:21:09;22.07;;;14.43;;
8952;SDS011;4511;50.890;8.054;2023-02-15T01:23:38;19.97;;;14.50;;
8952;SDS011;4511;50.890;8.054;2023-02-15T01:26:05;21.43;;;14.70;;
8952;SDS011;4511;50.890;8.054;2023-02-15T01:28:33;20.83;;;14.10;;
8952;SDS011;4511;50.890;8.054;2023-02-15T01:31:03;19.07;;;14.27;;
8952;SDS011;4511;50.890;8.054;2023-02-15T01:33:31;17.37;;;13.17;;
8952;SDS011;4511;50.890;8.054;2023-02-15T01:35:59;19.50;;;13.17;;
8952;SDS011;4511;50.890;8.054;2023-02-15T01:38:26;22.80;;;14.93;;
8952;SDS011;4511;50.890;8.054;2023-02-15T01:40:53;22.03;;;14.70;;
8952;SDS011;4511;50.890;8.054;2023-02-15T01:43:40;18.50;;;13.83;;
8952;SDS011;4511;50.890;8.054;2023-02-15T01:46:07;22.03;;;14.93;;
8952;SDS011;4511;50.890;8.054;2023-02-15T01:48:36;19.43;;;14.33;;
8952;SDS011;4511;50.890;8.054;2023-02-15T01:51:11;21.97;;;15.40;;
8952;SDS011;4511;50.890;8.054;2023-02-15T01:53:40;22.93;;;16.53;;
8952;SDS011;4511;50.890;8.054;2023-02-15T01:56:10;24.60;;;16.40;;
8952;SDS011;4511;50.890;8.054;2023-02-15T01:58:40;22.30;;;15.17;;
8952;SDS011;4511;50.890;8.054;2023-02-15T02:01:08;22.30;;;16.10;;
8952;SDS011;4511;50.890;8.054;2023-02-15T02:03:36;21.87;;;15.97;;
8952;SDS011;4511;50.890;8.054;2023-02-15T02:06:09;21.03;;;15.57;;
8952;SDS011;4511;50.890;8.054;2023-02-15T02:08:37;19.60;;;15.37;;
8952;SDS011;4511;50.890;8.054;2023-02-15T02:11:08;20.40;;;15.23;;
8952;SDS011;4511;50.890;8.054;2023-02-15T02:13:36;21.40;;;15.73;;
8952;SDS011;4511;50.890;8.054;2023-02-15T02:16:04;24.53;;;16.30;;
8952;SDS011;4511;50.890;8.054;2023-02-15T02:18:41;22.87;;;16.33;;
8952;SDS011;4511;50.890;8.054;2023-02-15T02:21:18;22.10;;;16.60;;
8952;SDS011;4511;50.890;8.054;2023-02-15T02:27:09;22.77;;;16.30;;
8952;SDS011;4511;50.890;8.054;2023-02-15T02:33:09;24.43;;;16.30;;
8952;SDS011;4511;50.890;8.054;2023-02-15T02:35:44;27.23;;;17.67;;
8952;SDS011;4511;50.890;8.054;2023-02-15T02:38:17;26.07;;;17.53;;
8952;SDS011;4511;50.890;8.054;2023-02-15T02:40:55;21.27;;;14.87;;
8952;SDS011;4511;50.890;8.054;2023-02-15T02:43:32;20.13;;;13.97;;
8952;SDS011;4511;50.890;8.054;2023-02-15T02:46:05;14.73;;;11.80;;
8952;SDS011;4511;50.890;8.054;2023-02-15T02:48:39;17.13;;;12.57;;
8952;SDS011;4511;50.890;8.054;2023-02-15T02:51:06;15.23;;;12.20;;
8952;SDS011;4511;50.890;8.054;2023-02-15T02:53:33;15.37;;;11.53;;
8952;SDS011;4511;50.890;8.054;2023-02-15T02:56:02;15.03;;;10.80;;
8952;SDS011;4511;50.890;8.054;2023-02-15T02:58:35;18.07;;;13.23;;
8952;SDS011;4511;50.890;8.054;2023-02-15T03:01:06;15.13;;;11.13;;
8952;SDS011;4511;50.890;8.054;2023-02-15T03:03:41;16.67;;;11.63;;
8952;SDS011;4511;50.890;8.054;2023-02-15T03:06:12;14.77;;;11.17;;
8952;SDS011;4511;50.890;8.054;2023-02-15T03:08:44;17.43;;;12.10;;
8952;SDS011;4511;50.890;8.054;2023-02-15T03:11:14;14.67;;;11.07;;
8952;SDS011;4511;50.890;8.054;2023-02-15T03:13:42;13.83;;;10.67;;
8952;SDS011;4511;50.890;8.054;2023-02-15T03:16:11;14.27;;;10.23;;
8952;SDS011;4511;50.890;8.054;2023-02-15T03:18:53;15.70;;;11.80;;
8952;SDS011;4511;50.890;8.054;2023-02-15T03:21:29;15.30;;;11.40;;
8952;SDS011;4511;50.890;8.054;2023-02-15T03:24:01;13.50;;;10.67;;
8952;SDS011;4511;50.890;8.054;2023-02-15T03:26:33;13.40;;;10.53;;
8952;SDS011;4511;50.890;8.054;2023-02-15T03:29:02;13.70;;;10.87;;
8952;SDS011;4511;50.890;8.054;2023-02-15T03:31:31;13.97;;;10.30;;
8952;SDS011;4511;50.890;8.054;2023-02-15T03:34:03;14.03;;;11.03;;
8952;SDS011;4511;50.890;8.054;2023-02-15T03:36:35;15.90;;;12.00;;
8952;SDS011;4511;50.890;8.054;2023-02-15T03:39:08;14.53;;;10.73;;
8952;SDS011;4511;50.890;8.054;2023-02-15T03:41:42;12.57;;;10.67;;
8952;SDS011;4511;50.890;8.054;2023-02-15T03:44:15;14.60;;;10.27;;
8952;SDS011;4511;50.890;8.054;2023-02-15T03:46:47;14.03;;;10.67;;
8952;SDS011;4511;50.890;8.054;2023-02-15T03:49:21;13.53;;;9.63;;
8952;SDS011;4511;50.890;8.054;2023-02-15T03:51:50;13.93;;;10.57;;
8952;SDS011;4511;50.890;8.054;2023-02-15T03:54:22;12.50;;;10.50;;
8952;SDS011;4511;50.890;8.054;2023-02-15T03:57:06;14.67;;;10.83;;
8952;SDS011;4511;50.890;8.054;2023-02-15T03:59:52;13.53;;;10.90;;
8952;SDS011;4511;50.890;8.054;2023-02-15T04:02:38;14.53;;;11.10;;
8952;SDS011;4511;50.890;8.054;2023-02-15T04:05:08;16.17;;;10.90;;
8952;SDS011;4511;50.890;8.054;2023-02-15T04:07:35;15.67;;;11.43;;
8952;SDS011;4511;50.890;8.054;2023-02-15T04:10:02;15.83;;;10.47;;
8952;SDS011;4511;50.890;8.054;2023-02-15T04:12:46;14.20;;;10.63;;
8952;SDS011;4511;50.890;8.054;2023-02-15T04:15:13;14.33;;;10.80;;
8952;SDS011;4511;50.890;8.054;2023-02-15T04:18:03;13.03;;;9.97;;
8952;SDS011;4511;50.890;8.054;2023-02-15T04:20:31;14.10;;;10.67;;
8952;SDS011;4511;50.890;8.054;2023-02-15T04:23:16;14.93;;;11.17;;
8952;SDS011;4511;50.890;8.054;2023-02-15T04:26:02;14.27;;;10.17;;
8952;SDS011;4511;50.890;8.054;2023-02-15T04:28:29;16.00;;;10.67;;
8952;SDS011;4511;50.890;8.054;2023-02-15T04:30:56;14.37;;;10.73;;
8952;SDS011;4511;50.890;8.054;2023-02-15T04:33:22;14.10;;;10.43;;
8952;SDS011;4511;50.890;8.054;2023-02-15T04:35:51;13.00;;;10.03;;
8952;SDS011;4511;50.890;8.054;2023-02-15T04:38:17;14.43;;;10.53;;
8952;SDS011;4511;50.890;8.054;2023-02-15T04:40:44;14.00;;;9.87;;
8952;SDS011;4511;50.890;8.054;2023-02-15T04:43:15;14.43;;;11.00;;
8952;SDS011;4511;50.890;8.054;2023-02-15T04:45:46;14.60;;;10.40;;
8952;SDS011;4511;50.890;8.054;2023-02-15T04:48:14;13.30;;;10.03;;
8952;SDS011;4511;50.890;8.054;2023-02-15T04:50:41;13.23;;;10.07;;
8952;SDS011;4511;50.890;8.054;2023-02-15T04:53:09;13.47;;;10.43;;
8952;SDS011;4511;50.890;8.054;2023-02-15T04:55:36;14.97;;;10.80;;
8952;SDS011;4511;50.890;8.054;2023-02-15T04:58:03;13.73;;;10.53;;
8952;SDS011;4511;50.890;8.054;2023-02-15T05:00:29;13.97;;;10.63;;
8952;SDS011;4511;50.890;8.054;2023-02-15T05:02:56;12.73;;;9.73;;
8952;SDS011;4511;50.890;8.054;2023-02-15T05:05:23;12.97;;;10.10;;
8952;SDS011;4511;50.890;8.054;2023-02-15T05:07:50;14.83;;;11.33;;
8952;SDS011;4511;50.890;8.054;2023-02-15T05:10:18;15.00;;;12.37;;
8952;SDS011;4511;50.890;8.054;2023-02-15T05:12:45;13.63;;;10.77;;
8952;SDS011;4511;50.890;8.054;2023-02-15T05:15:12;20.03;;;10.93;;
8952;SDS011;4511;50.890;8.054;2023-02-15T05:17:38;13.67;;;10.37;;
8952;SDS011;4511;50.890;8.054;2023-02-15T05:20:06;12.47;;;10.43;;
8952;SDS011;4511;50.890;8.054;2023-02-15T05:22:33;14.50;;;10.73;;
8952;SDS011;4511;50.890;8.054;2023-02-15T05:25:00;13.87;;;10.57;;
8952;SDS011;4511;50.890;8.054;2023-02-15T05:27:45;14.53;;;10.57;;
8952;SDS011;4511;50.890;8.054;2023-02-15T05:30:29;13.50;;;10.80;;
8952;SDS011;4511;50.890;8.054;2023-02-15T05:32:56;13.87;;;11.27;;
8952;SDS011;4511;50.890;8.054;2023-02-15T05:35:23;15.03;;;11.87;;
8952;SDS011;4511;50.890;8.054;2023-02-15T05:37:49;18.73;;;12.47;;
8952;SDS011;4511;50.890;8.054;2023-02-15T05:40:16;19.63;;;12.90;;
8952;SDS011;4511;50.890;8.054;2023-02-15T05:42:43;14.87;;;11.63;;
8952;SDS011;4511;50.890;8.054;2023-02-15T05:45:11;19.27;;;12.73;;
8952;SDS011;4511;50.890;8.054;2023-02-15T05:47:38;17.60;;;12.80;;
8952;SDS011;4511;50.890;8.054;2023-02-15T05:50:05;14.87;;;12.30;;
8952;SDS011;4511;50.890;8.054;2023-02-15T05:52:33;13.83;;;10.60;;
8952;SDS011;4511;50.890;8.054;2023-02-15T05:54:59;14.27;;;11.80;;
8952;SDS011;4511;50.890;8.054;2023-02-15T05:57:27;16.83;;;12.83;;
8952;SDS011;4511;50.890;8.054;2023-02-15T05:59:54;15.93;;;12.20;;
8952;SDS011;4511;50.890;8.054;2023-02-15T06:02:22;17.63;;;12.53;;
8952;SDS011;4511;50.890;8.054;2023-02-15T06:04:49;38.70;;;25.23;;
8952;SDS011;4511;50.890;8.054;2023-02-15T06:07:15;16.73;;;12.50;;
8952;SDS011;4511;50.890;8.054;2023-02-15T06:09:42;15.37;;;11.80;;
8952;SDS011;4511;50.890;8.054;2023-02-15T06:12:09;15.83;;;11.73;;
8952;SDS011;4511;50.890;8.054;2023-02-15T06:14:36;15.20;;;11.57;;
8952;SDS011;4511;50.890;8.054;2023-02-15T06:17:02;16.67;;;11.57;;
8952;SDS011;4511;50.890;8.054;2023-02-15T06:19:30;12.90;;;10.27;;
8952;SDS011;4511;50.890;8.054;2023-02-15T06:21:57;15.70;;;12.00;;
8952;SDS011;4511;50.890;8.054;2023-02-15T06:24:24;14.37;;;11.60;;
8952;SDS011;4511;50.890;8.054;2023-02-15T06:26:51;17.77;;;11.90;;
8952;SDS011;4511;50.890;8.054;2023-02-15T06:29:17;15.83;;;11.53;;
8952;SDS011;4511;50.890;8.054;2023-02-15T06:31:44;17.43;;;11.53;;
8952;SDS011;4511;50.890;8.054;2023-02-15T06:34:11;14.23;;;11.60;;
8952;SDS011;4511;50.890;8.054;2023-02-15T06:36:39;13.83;;;11.03;;
8952;SDS011;4511;50.890;8.054;2023-02-15T06:39:06;16.50;;;12.13;;
8952;SDS011;4511;50.890;8.054;2023-02-15T06:41:33;16.63;;;11.87;;
8952;SDS011;4511;50.890;8.054;2023-02-15T06:44:00;14.17;;;11.37;;
8952;SDS011;4511;50.890;8.054;2023-02-15T06:46:27;17.57;;;12.20;;
8952;SDS011;4511;50.890;8.054;2023-02-15T06:48:54;16.60;;;12.47;;
8952;SDS011;4511;50.890;8.054;2023-02-15T06:51:21;16.27;;;12.20;;
8952;SDS011;4511;50.890;8.054;2023-02-15T06:53:49;16.00;;;12.27;;
8952;SDS011;4511;50.890;8.054;2023-02-15T06:56:16;16.17;;;12.70;;
8952;SDS011;4511;50.890;8.054;2023-02-15T06:58:42;20.13;;;14.10;;
8952;SDS011;4511;50.890;8.054;2023-02-15T07:01:11;18.87;;;13.37;;
8952;SDS011;4511;50.890;8.054;2023-02-15T07:03:38;19.70;;;14.03;;
8952;SDS011;4511;50.890;8.054;2023-02-15T07:06:05;16.67;;;12.37;;
8952;SDS011;4511;50.890;8.054;2023-02-15T07:08:33;17.53;;;13.07;;
8952;SDS011;4511;50.890;8.054;2023-02-15T07:11:01;16.33;;;11.30;;
8952;SDS011;4511;50.890;8.054;2023-02-15T07:13:42;17.43;;;12.30;;
8952;SDS011;4511;50.890;8.054;2023-02-15T07:16:09;16.20;;;12.50;;
8952;SDS011;4511;50.890;8.054;2023-02-15T07:18:36;16.83;;;12.30;;
8952;SDS011;4511;50.890;8.054;2023-02-15T07:21:03;18.63;;;12.90;;
8952;SDS011;4511;50.890;8.054;2023-02-15T07:23:32;17.03;;;12.60;;
8952;SDS011;4511;50.890;8.054;2023-02-15T07:25:59;16.67;;;12.20;;
8952;SDS011;4511;50.890;8.054;2023-02-15T07:28:28;16.90;;;12.10;;
8952;SDS011;4511;50.890;8.054;2023-02-15T07:30:55;17.17;;;11.90;;
8952;SDS011;4511;50.890;8.054;2023-02-15T07:33:22;17.30;;;12.40;;
8952;SDS011;4511;50.890;8.054;2023-02-15T07:35:49;13.77;;;11.17;;
8952;SDS011;4511;50.890;8.054;2023-02-15T07:38:16;14.03;;;11.33;;
8952;SDS011;4511;50.890;8.054;2023-02-15T07:40:43;14.23;;;11.17;;
8952;SDS011;4511;50.890;8.054;2023-02-15T07:43:12;15.77;;;11.63;;
8952;SDS011;4511;50.890;8.054;2023-02-15T07:45:39;14.83;;;10.80;;
8952;SDS011;4511;50.890;8.054;2023-02-15T07:48:06;14.27;;;10.53;;
8952;SDS011;4511;50.890;8.054;2023-02-15T07:50:33;15.67;;;11.73;;
8952;SDS011;4511;50.890;8.054;2023-02-15T07:53:00;13.93;;;10.83;;
8952;SDS011;4511;50.890;8.054;2023-02-15T07:55:28;14.13;;;10.80;;
8952;SDS011;4511;50.890;8.054;2023-02-15T07:57:55;17.50;;;11.33;;
8952;SDS011;4511;50.890;8.054;2023-02-15T08:00:23;12.57;;;10.47;;
8952;SDS011;4511;50.890;8.054;2023-02-15T08:02:51;16.60;;;11.03;;
8952;SDS011;4511;50.890;8.054;2023-02-15T08:05:33;16.77;;;10.93;;
8952;SDS011;4511;50.890;8.054;2023-02-15T08:08:00;16.37;;;10.93;;
8952;SDS011;4511;50.890;8.054;2023-02-15T08:10:26;13.60;;;10.57;;
8952;SDS011;4511;50.890;8.054;2023-02-15T08:13:07;14.47;;;10.57;;
8952;SDS011;4511;50.890;8.054;2023-02-15T08:15:35;14.80;;;11.13;;
8952;SDS011;4511;50.890;8.054;2023-02-15T08:18:02;15.37;;;10.97;;
8952;SDS011;4511;50.890;8.054;2023-02-15T08:20:29;16.63;;;11.10;;
8952;SDS011;4511;50.890;8.054;2023-02-15T08:22:56;30.60;;;25.83;;
8952;SDS011;4511;50.890;8.054;2023-02-15T08:25:22;15.07;;;11.07;;
8952;SDS011;4511;50.890;8.054;2023-02-15T08:27:49;15.37;;;10.77;;
8952;SDS011;4511;50.890;8.054;2023-02-15T08:30:17;15.00;;;10.80;;
8952;SDS011;4511;50.890;8.054;2023-02-15T08:32:45;13.03;;;10.33;;
8952;SDS011;4511;50.890;8.054;2023-02-15T08:35:12;12.87;;;10.10;;
8952;SDS011;4511;50.890;8.054;2023-02-15T08:37:39;12.13;;;9.90;;
8952;SDS011;4511;50.890;8.054;2023-02-15T08:40:06;12.97;;;10.17;;
8952;SDS011;4511;50.890;8.054;2023-02-15T08:42:34;12.37;;;10.27;;
8952;SDS011;4511;50.890;8.054;2023-02-15T08:45:01;12.27;;;9.37;;
8952;SDS011;4511;50.890;8.054;2023-02-15T08:47:27;12.20;;;9.07;;
8952;SDS011;4511;50.890;8.054;2023-02-15T08:49:55;11.27;;;8.73;;
8952;SDS011;4511;50.890;8.054;2023-02-15T08:52:22;13.27;;;9.57;;
8952;SDS011;4511;50.890;8.054;2023-02-15T08:54:49;11.87;;;9.10;;
8952;SDS011;4511;50.890;8.054;2023-02-15T08:57:15;10.70;;;8.60;;
8952;SDS011;4511;50.890;8.054;2023-02-15T08:59:42;11.50;;;8.23;;
8952;SDS011;4511;50.890;8.054;2023-02-15T09:02:09;10.00;;;8.43;;
8952;SDS011;4511;50.890;8.054;2023-02-15T09:04:36;9.20;;;8.20;;
8952;SDS011;4511;50.890;8.054;2023-02-15T09:07:04;11.30;;;8.20;;
8952;SDS011;4511;50.890;8.054;2023-02-15T09:09:31;12.03;;;8.30;;
8952;SDS011;4511;50.890;8.054;2023-02-15T09:11:58;11.80;;;8.93;;
8952;SDS011;4511;50.890;8.054;2023-02-15T09:14:25;11.83;;;8.33;;
8952;SDS011;4511;50.890;8.054;2023-02-15T09:16:53;9.57;;;7.70;;
8952;SDS011;4511;50.890;8.054;2023-02-15T09:19:20;8.90;;;7.70;;
8952;SDS011;4511;50.890;8.054;2023-02-15T09:21:48;9.37;;;7.83;;
8952;SDS011;4511;50.890;8.054;2023-02-15T09:24:16;9.63;;;8.03;;
8952;SDS011;4511;50.890;8.054;2023-02-15T09:26:44;8.73;;;7.67;;
8952;SDS011;4511;50.890;8.054;2023-02-15T09:29:13;9.93;;;8.30;;
8952;SDS011;4511;50.890;8.054;2023-02-15T09:31:41;9.27;;;7.63;;
8952;SDS011;4511;50.890;8.054;2023-02-15T09:34:10;10.23;;;7.50;;
8952;SDS011;4511;50.890;8.054;2023-02-15T09:36:38;9.17;;;7.77;;
8952;SDS011;4511;50.890;8.054;2023-02-15T09:39:07;9.30;;;7.87;;
8952;SDS011;4511;50.890;8.054;2023-02-15T09:41:50;9.87;;;8.50;;
8952;SDS011;4511;50.890;8.054;2023-02-15T09:44:53;10.00;;;8.17;;
8952;SDS011;4511;50.890;8.054;2023-02-15T09:47:43;9.27;;;8.03;;
8952;SDS011;4511;50.890;8.054;2023-02-15T09:50:33;8.43;;;7.60;;
8952;SDS011;4511;50.890;8.054;2023-02-15T09:53:18;8.50;;;7.30;;
8952;SDS011;4511;50.890;8.054;2023-02-15T09:55:57;10.50;;;8.20;;
8952;SDS011;4511;50.890;8.054;2023-02-15T09:58:36;8.67;;;7.63;;
8952;SDS011;4511;50.890;8.054;2023-02-15T10:01:14;9.13;;;7.80;;
8952;SDS011;4511;50.890;8.054;2023-02-15T10:03:53;9.57;;;8.17;;
8952;SDS011;4511;50.890;8.054;2023-02-15T10:06:33;10.10;;;8.20;;
8952;SDS011;4511;50.890;8.054;2023-02-15T10:09:13;10.40;;;8.50;;
8952;SDS011;4511;50.890;8.054;2023-02-15T10:12:03;8.60;;;7.60;;
8952;SDS011;4511;50.890;8.054;2023-02-15T10:14:48;9.33;;;8.37;;
8952;SDS011;4511;50.890;8.054;2023-02-15T10:17:37;10.77;;;8.33;;
8952;SDS011;4511;50.890;8.054;2023-02-15T10:20:17;9.23;;;8.23;;
8952;SDS011;4511;50.890;8.054;2023-02-15T10:22:55;9.50;;;8.27;;
8952;SDS011;4511;50.890;8.054;2023-02-15T10:25:40;11.93;;;9.13;;
8952;SDS011;4511;50.890;8.054;2023-02-15T10:28:16;9.47;;;8.40;;
8952;SDS011;4511;50.890;8.054;2023-02-15T10:30:47;12.20;;;9.27;;
8952;SDS011;4511;50.890;8.054;2023-02-15T10:33:20;11.27;;;9.07;;
8952;SDS011;4511;50.890;8.054;2023-02-15T10:35:59;9.43;;;8.23;;
8952;SDS011;4511;50.890;8.054;2023-02-15T10:38:34;10.90;;;8.97;;
8952;SDS011;4511;50.890;8.054;2023-02-15T10:41:09;11.23;;;9.27;;
8952;SDS011;4511;50.890;8.054;2023-02-15T10:43:50;12.50;;;8.60;;
8952;SDS011;4511;50.890;8.054;2023-02-15T10:46:40;11.43;;;9.10;;
8952;SDS011;4511;50.890;8.054;2023-02-15T10:49:24;13.20;;;9.67;;
8952;SDS011;4511;50.890;8.054;2023-02-15T10:52:10;12.50;;;9.27;;
8952;SDS011;4511;50.890;8.054;2023-02-15T10:54:49;11.73;;;9.53;;
8952;SDS011;4511;50.890;8.054;2023-02-15T10:57:24;11.00;;;8.97;;
8952;SDS011;4511;50.890;8.054;2023-02-15T11:00:03;12.57;;;9.33;;
8952;SDS011;4511;50.890;8.054;2023-02-15T11:02:42;12.20;;;9.40;;
8952;SDS011;4511;50.890;8.054;2023-02-15T11:05:21;10.80;;;9.20;;
8952;SDS011;4511;50.890;8.054;2023-02-15T11:07:57;12.97;;;9.43;;
8952;SDS011;4511;50.890;8.054;2023-02-15T11:10:28;12.50;;;9.80;;
8952;SDS011;4511;50.890;8.054;2023-02-15T11:12:58;11.20;;;9.37;;
8952;SDS011;4511;50.890;8.054;2023-02-15T11:15:30;12.33;;;9.63;;
8952;SDS011;4511;50.890;8.054;2023-02-15T11:18:04;12.10;;;9.20;;
8952;SDS011;4511;50.890;8.054;2023-02-15T11:20:35;10.90;;;9.10;;
8952;SDS011;4511;50.890;8.054;2023-02-15T11:23:09;11.83;;;9.23;;
8952;SDS011;4511;50.890;8.054;2023-02-15T11:25:41;11.20;;;8.93;;
8952;SDS011;4511;50.890;8.054;2023-02-15T11:28:13;10.90;;;8.77;;
8952;SDS011;4511;50.890;8.054;2023-02-15T11:30:45;10.27;;;8.27;;
8952;SDS011;4511;50.890;8.054;2023-02-15T11:33:18;11.13;;;8.57;;
8952;SDS011;4511;50.890;8.054;2023-02-15T11:35:49;10.47;;;8.67;;
8952;SDS011;4511;50.890;8.054;2023-02-15T11:38:20;10.50;;;8.23;;
8952;SDS011;4511;50.890;8.054;2023-02-15T11:40:51;9.93;;;8.93;;
8952;SDS011;4511;50.890;8.054;2023-02-15T11:43:23;11.07;;;9.20;;
8952;SDS011;4511;50.890;8.054;2023-02-15T11:45:56;11.23;;;8.90;;
8952;SDS011;4511;50.890;8.054;2023-02-15T11:48:24;11.03;;;9.37;;
8952;SDS011;4511;50.890;8.054;2023-02-15T11:50:51;10.83;;;8.77;;
8952;SDS011;4511;50.890;8.054;2023-02-15T11:53:18;11.60;;;9.00;;
8952;SDS011;4511;50.890;8.054;2023-02-15T11:55:50;10.20;;;8.83;;
8952;SDS011;4511;50.890;8.054;2023-02-15T11:58:21;12.40;;;8.53;;
8952;SDS011;4511;50.890;8.054;2023-02-15T12:00:55;9.80;;;8.03;;
8952;SDS011;4511;50.890;8.054;2023-02-15T12:03:29;10.67;;;8.10;;
8952;SDS011;4511;50.890;8.054;2023-02-15T12:06:11;9.47;;;8.17;;
8952;SDS011;4511;50.890;8.054;2023-02-15T12:08:52;9.30;;;7.97;;
8952;SDS011;4511;50.890;8.054;2023-02-15T12:11:25;9.83;;;8.43;;
8952;SDS011;4511;50.890;8.054;2023-02-15T12:13:59;12.57;;;8.40;;
8952;SDS011;4511;50.890;8.054;2023-02-15T12:16:28;9.57;;;8.10;;
8952;SDS011;4511;50.890;8.054;2023-02-15T12:18:59;9.77;;;8.50;;
8952;SDS011;4511;50.890;8.054;2023-02-15T12:21:28;10.60;;;8.60;;
8952;SDS011;4511;50.890;8.054;2023-02-15T12:23:57;9.90;;;8.57;;
8952;SDS011;4511;50.890;8.054;2023-02-15T12:26:29;10.13;;;8.43;;
8952;SDS011;4511;50.890;8.054;2023-02-15T12:28:57;10.57;;;8.67;;
8952;SDS011;4511;50.890;8.054;2023-02-15T12:31:27;11.40;;;9.43;;
8952;SDS011;4511;50.890;8.054;2023-02-15T12:33:59;12.43;;;8.83;;
8952;SDS011;4511;50.890;8.054;2023-02-15T12:36:31;9.97;;;8.40;;
8952;SDS011;4511;50.890;8.054;2023-02-15T12:39:18;9.87;;;8.30;;
8952;SDS011;4511;50.890;8.054;2023-02-15T12:41:56;8.80;;;7.90;;
8952;SDS011;4511;50.890;8.054;2023-02-15T12:44:26;12.67;;;9.03;;
8952;SDS011;4511;50.890;8.054;2023-02-15T12:46:58;11.00;;;8.90;;
8952;SDS011;4511;50.890;8.054;2023-02-15T12:49:30;9.90;;;8.53;;
8952;SDS011;4511;50.890;8.054;2023-02-15T12:51:58;10.93;;;9.07;;
8952;SDS011;4511;50.890;8.054;2023-02-15T12:54:35;11.30;;;8.70;;
8952;SDS011;4511;50.890;8.054;2023-02-15T12:57:21;10.20;;;8.83;;
8952;SDS011;4511;50.890;8.054;2023-02-15T12:59:51;10.07;;;8.97;;
8952;SDS011;4511;50.890;8.054;2023-02-15T13:02:21;12.67;;;9.33;;
8952;SDS011;4511;50.890;8.054;2023-02-15T13:04:52;11.97;;;9.43;;
8952;SDS011;4511;50.890;8.054;2023-02-15T13:07:21;10.77;;;9.20;;
8952;SDS011;4511;50.890;8.054;2023-02-15T13:09:49;9.80;;;8.57;;
8952;SDS011;4511;50.890;8.054;2023-02-15T13:12:18;12.87;;;9.10;;
8952;SDS011;4511;50.890;8.054;2023-02-15T13:14:48;10.43;;;8.90;;
8952;SDS011;4511;50.890;8.054;2023-02-15T13:17:17;11.57;;;9.43;;
8952;SDS011;4511;50.890;8.054;2023-02-15T13:19:49;12.23;;;9.57;;
8952;SDS011;4511;50.890;8.054;2023-02-15T13:22:21;11.40;;;9.60;;
8952;SDS011;4511;50.890;8.054;2023-02-15T13:24:53;11.13;;;9.60;;
8952;SDS011;4511;50.890;8.054;2023-02-15T13:27:23;11.30;;;9.63;;
8952;SDS011;4511;50.890;8.054;2023-02-15T13:29:55;11.60;;;9.63;;
8952;SDS011;4511;50.890;8.054;2023-02-15T13:32:26;11.63;;;9.33;;
8952;SDS011;4511;50.890;8.054;2023-02-15T13:34:56;13.03;;;10.20;;
8952;SDS011;4511;50.890;8.054;2023-02-15T13:37:31;11.80;;;10.20;;
8952;SDS011;4511;50.890;8.054;2023-02-15T13:40:12;12.20;;;10.27;;
8952;SDS011;4511;50.890;8.054;2023-02-15T13:42:41;11.00;;;9.50;;
8952;SDS011;4511;50.890;8.054;2023-02-15T13:45:19;11.43;;;9.93;;
8952;SDS011;4511;50.890;8.054;2023-02-15T13:48:09;11.57;;;9.93;;
8952;SDS011;4511;50.890;8.054;2023-02-15T13:50:49;12.10;;;9.27;;
8952;SDS011;4511;50.890;8.054;2023-02-15T13:53:28;12.80;;;10.20;;
8952;SDS011;4511;50.890;8.054;2023-02-15T13:56:06;12.37;;;10.20;;
8952;SDS011;4511;50.890;8.054;2023-02-15T13:58:49;12.50;;;10.00;;
8952;SDS011;4511;50.890;8.054;2023-02-15T14:01:31;12.03;;;9.70;;
8952;SDS011;4511;50.890;8.054;2023-02-15T14:04:18;11.03;;;9.57;;
8952;SDS011;4511;50.890;8.054;2023-02-15T14:10:21;12.10;;;10.30;;
8952;SDS011;4511;50.890;8.054;2023-02-15T14:13:01;12.43;;;10.27;;
8952;SDS011;4511;50.890;8.054;2023-02-15T14:15:48;12.13;;;10.03;;
8952;SDS011;4511;50.890;8.054;2023-02-15T14:18:20;12.63;;;10.00;;
8952;SDS011;4511;50.890;8.054;2023-02-15T14:20:58;11.97;;;10.03;;
8952;SDS011;4511;50.890;8.054;2023-02-15T14:23:34;12.37;;;9.87;;
8952;SDS011;4511;50.890;8.054;2023-02-15T14:26:11;11.47;;;9.80;;
8952;SDS011;4511;50.890;8.054;2023-02-15T14:28:45;13.10;;;10.63;;
8952;SDS011;4511;50.890;8.054;2023-02-15T14:31:18;15.63;;;10.80;;
8952;SDS011;4511;50.890;8.054;2023-02-15T14:33:52;13.43;;;11.60;;
8952;SDS011;4511;50.890;8.054;2023-02-15T14:36:21;12.40;;;11.10;;
8952;SDS011;4511;50.890;8.054;2023-02-15T14:38:56;14.37;;;10.97;;
8952;SDS011;4511;50.890;8.054;2023-02-15T14:41:53;13.23;;;11.23;;
8952;SDS011;4511;50.890;8.054;2023-02-15T14:44:26;15.93;;;11.03;;
8952;SDS011;4511;50.890;8.054;2023-02-15T14:46:57;15.27;;;11.63;;
8952;SDS011;4511;50.890;8.054;2023-02-15T14:49:30;15.20;;;11.63;;
8952;SDS011;4511;50.890;8.054;2023-02-15T14:52:03;16.40;;;12.33;;
8952;SDS011;4511;50.890;8.054;2023-02-15T14:54:55;16.40;;;12.40;;
8952;SDS011;4511;50.890;8.054;2023-02-15T14:57:29;17.43;;;12.17;;
8952;SDS011;4511;50.890;8.054;2023-02-15T15:00:01;14.30;;;12.00;;
8952;SDS011;4511;50.890;8.054;2023-02-15T15:02:44;14.50;;;12.13;;
8952;SDS011;4511;50.890;8.054;2023-02-15T15:05:16;18.73;;;11.30;;
8952;SDS011;4511;50.890;8.054;2023-02-15T15:07:46;17.23;;;11.70;;
8952;SDS011;4511;50.890;8.054;2023-02-15T15:19:09;17.10;;;12.60;;
8952;SDS011;4511;50.890;8.054;2023-02-15T15:21:51;16.07;;;12.47;;
8952;SDS011;4511;50.890;8.054;2023-02-15T15:33:33;16.87;;;13.17;;
8952;SDS011;4511;50.890;8.054;2023-02-15T15:36:27;17.23;;;13.27;;
8952;SDS011;4511;50.890;8.054;2023-02-15T15:39:21;17.27;;;12.90;;
8952;SDS011;4511;50.890;8.054;2023-02-15T15:42:04;18.73;;;12.77;;
8952;SDS011;4511;50.890;8.054;2023-02-15T15:44:54;18.37;;;13.70;;
8952;SDS011;4511;50.890;8.054;2023-02-15T15:47:50;19.03;;;13.30;;